Time;durP1;ratioP1;P1;durP2;ratioP2;P2;SDS_P1;SDS_P2;PMS_P1;PMS_P2;Temp;Humidity;BMP_temperature;BMP_pressure;BME280_temperature;BME280_humidity;BME280_pressure;Samples;Min_cycle;Max_cycle;Signal;HPM_P1;HPM_P2
2021/05/31 00:00:58;;;;;;;4.10;3.03;;;;;;;8.13;73.63;101719.84;3532168;40;20069;-53
2021/05/31 00:03:25;;;;;;;3.25;2.95;;;;;;;8.50;72.37;101731.94;3532045;40;20066;-55
2021/05/31 00:05:52;;;;;;;5.65;3.05;;;;;;;8.05;73.85;101730.44;3531767;40;20065;-54
2021/05/31 00:08:20;;;;;;;3.85;3.03;;;;;;;7.95;74.72;101725.63;3531989;40;20070;-56
2021/05/31 00:10:47;;;;;;;4.55;3.47;;;;;;;7.94;75.31;101724.75;3531692;40;20053;-53
2021/05/31 00:13:18;;;;;;;5.20;3.00;;;;;;;8.00;75.85;101724.22;3532009;40;20055;-55
2021/05/31 00:15:46;;;;;;;5.00;2.75;;;;;;;8.49;73.37;101716.56;3531331;40;20057;-53
2021/05/31 00:18:17;;;;;;;5.15;3.10;;;;;;;8.88;71.33;101716.00;3532089;40;20162;-53
2021/05/31 00:20:44;;;;;;;5.70;3.45;;;;;;;8.44;72.87;101723.13;3531246;40;20070;-52
2021/05/31 00:23:11;;;;;;;4.68;3.08;;;;;;;8.12;74.32;101712.09;3531642;40;20054;-51
2021/05/31 00:25:38;;;;;;;4.13;2.90;;;;;;;7.59;76.96;101712.69;3531626;40;20054;-51
2021/05/31 00:28:05;;;;;;;4.95;3.33;;;;;;;7.43;78.40;101710.97;3529572;40;20435;-51
2021/05/31 00:30:32;;;;;;;3.65;3.13;;;;;;;7.47;78.44;101704.38;3532244;40;20475;-56
2021/05/31 00:32:59;;;;;;;4.78;3.90;;;;;;;7.42;78.97;101704.13;3532062;40;20413;-53
2021/05/31 00:35:26;;;;;;;4.50;3.28;;;;;;;7.56;78.67;101707.44;3531882;40;20065;-54
2021/05/31 00:37:56;;;;;;;5.78;3.38;;;;;;;7.75;77.93;101694.88;3531664;40;20077;-56
2021/05/31 00:40:25;;;;;;;5.40;3.22;;;;;;;7.68;78.23;101703.00;3531895;40;20074;-52
2021/05/31 00:42:53;;;;;;;4.65;3.25;;;;;;;7.68;76.88;101700.44;3531646;40;20110;-52
2021/05/31 00:45:21;;;;;;;6.30;3.17;;;;;;;7.20;80.13;101704.59;3531516;40;20065;-52
2021/05/31 00:47:49;;;;;;;4.22;3.35;;;;;;;7.32;80.21;101705.28;3531477;40;20047;-49
2021/05/31 00:50:18;;;;;;;6.00;3.80;;;;;;;7.31;80.73;101702.66;3531480;40;20055;-53
2021/05/31 00:52:45;;;;;;;7.30;3.95;;;;;;;7.18;80.71;101700.25;3531225;40;20143;-55
2021/05/31 00:55:13;;;;;;;4.18;3.50;;;;;;;7.20;81.44;101703.72;3531616;40;20074;-50
2021/05/31 00:57:40;;;;;;;6.70;3.53;;;;;;;7.14;81.62;101700.06;3531512;40;20062;-49
2021/05/31 01:00:09;;;;;;;4.63;3.20;;;;;;;7.45;80.11;101705.97;3531134;40;20140;-54
2021/05/31 01:02:37;;;;;;;4.50;3.05;;;;;;;7.31;80.86;101700.13;3532062;40;20098;-54
2021/05/31 01:05:05;;;;;;;7.82;3.47;;;;;;;7.13;82.09;101702.53;3529308;40;20413;-55
2021/05/31 01:07:42;;;;;;;6.75;3.97;;;;;;;7.02;82.82;101701.03;3531832;40;20062;-53
2021/05/31 01:10:22;;;;;;;5.00;3.08;;;;;;;7.74;80.52;101698.22;3529164;40;20131;-52
2021/05/31 01:12:57;;;;;;;3.10;2.65;;;;;;;7.66;80.01;101699.47;3531060;40;20590;-56
2021/05/31 01:15:32;;;;;;;6.20;3.42;;;;;;;7.57;80.22;101692.19;3531214;40;20129;-53
2021/05/31 01:18:08;;;;;;;5.22;3.28;;;;;;;7.65;80.39;101688.41;3531264;40;20059;-49
2021/05/31 01:20:54;;;;;;;5.97;3.45;;;;;;;7.13;82.26;101687.25;3531128;40;20054;-52
2021/05/31 01:23:26;;;;;;;4.45;3.42;;;;;;;7.17;82.49;101691.72;3529726;40;20061;-54
2021/05/31 01:26:11;;;;;;;5.53;3.35;;;;;;;7.34;81.40;101688.41;3531424;40;20057;-51
2021/05/31 01:29:00;;;;;;;4.20;3.10;;;;;;;7.37;81.58;101685.16;3531264;40;20053;-52
2021/05/31 01:31:43;;;;;;;4.47;2.88;;;;;;;7.04;83.75;101679.97;3530272;40;20595;-55
2021/05/31 01:34:12;;;;;;;5.85;3.20;;;;;;;7.11;83.91;101683.72;3529105;40;20053;-50
2021/05/31 01:36:45;;;;;;;7.15;4.00;;;;;;;6.95;84.15;101678.59;3531214;40;20084;-54
2021/05/31 01:39:18;;;;;;;6.75;3.90;;;;;;;6.65;85.68;101681.13;3531933;40;20372;-54
2021/05/31 01:41:46;;;;;;;5.95;4.35;;;;;;;6.57;85.90;101679.84;3531270;40;20051;-55
2021/05/31 01:44:14;;;;;;;7.95;4.00;;;;;;;7.15;84.17;101675.47;3532109;40;20057;-53
2021/05/31 01:46:42;;;;;;;6.03;3.35;;;;;;;6.96;85.00;101672.69;3531143;40;20417;-57
2021/05/31 01:49:10;;;;;;;4.90;3.83;;;;;;;7.08;84.53;101674.25;3531161;40;20055;-54
2021/05/31 01:51:38;;;;;;;6.93;3.35;;;;;;;6.70;86.67;101674.66;3531038;40;20087;-56
2021/05/31 01:54:11;;;;;;;4.60;3.42;;;;;;;6.66;87.23;101679.47;3528851;40;20055;-51
2021/05/31 01:56:40;;;;;;;6.38;4.32;;;;;;;6.74;87.25;101676.56;3531031;40;20065;-51
2021/05/31 01:59:08;;;;;;;6.50;3.92;;;;;;;6.92;86.78;101676.72;3531182;40;20069;-58
2021/05/31 02:01:35;;;;;;;5.05;3.88;;;;;;;6.73;88.00;101671.38;3531128;40;20062;-56
2021/05/31 02:04:02;;;;;;;6.47;3.92;;;;;;;6.83;86.99;101678.75;3531354;40;20102;-50
2021/05/31 02:06:29;;;;;;;6.32;3.63;;;;;;;6.57;88.51;101667.09;3530889;40;20053;-54
2021/05/31 02:08:56;;;;;;;7.93;3.83;;;;;;;6.43;89.19;101665.44;3531300;40;20059;-49
2021/05/31 02:11:51;;;;;;;6.32;3.78;;;;;;;6.33;89.92;101669.06;3530732;40;20110;-56
2021/05/31 02:14:27;;;;;;;4.75;4.00;;;;;;;6.16;90.72;101672.31;3530876;40;20095;-53
2021/05/31 02:17:36;;;;;;;6.93;4.10;;;;;;;6.32;90.22;101668.22;3532194;40;20066;-55
2021/05/31 02:20:08;;;;;;;7.30;3.92;;;;;;;6.57;89.19;101665.44;3532901;40;20051;-53
2021/05/31 02:22:40;;;;;;;6.70;3.53;;;;;;;6.29;90.00;101662.09;3532272;40;20808;-51
2021/05/31 02:25:08;;;;;;;5.45;4.00;;;;;;;6.01;91.02;101657.91;3530286;40;20066;-56
2021/05/31 02:27:36;;;;;;;5.38;4.10;;;;;;;5.97;91.79;101652.56;3532286;40;20091;-51
2021/05/31 02:30:06;;;;;;;5.45;3.67;;;;;;;6.11;91.03;101651.72;3532789;40;20049;-54
2021/05/31 02:32:48;;;;;;;4.88;3.88;;;;;;;5.85;91.88;101650.97;3533214;40;20332;-55
2021/05/31 02:35:16;;;;;;;6.03;4.38;;;;;;;5.72;92.92;101650.16;3531887;40;20061;-53
2021/05/31 02:37:43;;;;;;;9.80;4.22;;;;;;;5.95;92.08;101654.97;3532915;40;20047;-57
2021/05/31 02:40:11;;;;;;;5.82;3.65;;;;;;;6.05;91.81;101653.88;3532967;40;20067;-55
2021/05/31 02:42:40;;;;;;;6.57;3.88;;;;;;;6.52;88.99;101645.63;3532145;40;20041;-55
2021/05/31 02:45:09;;;;;;;6.13;3.95;;;;;;;6.29;90.82;101647.69;3532493;40;20092;-51
2021/05/31 02:47:36;;;;;;;6.00;4.25;;;;;;;6.11;91.66;101647.50;3532129;40;20077;-53
2021/05/31 02:50:04;;;;;;;5.03;3.90;;;;;;;5.86;93.02;101646.78;3530573;40;20647;-55
2021/05/31 02:52:32;;;;;;;6.03;4.00;;;;;;;5.95;93.02;101657.53;3532558;40;20086;-51
2021/05/31 02:54:59;;;;;;;6.65;3.97;;;;;;;6.01;92.16;101651.94;3532646;40;20055;-55
2021/05/31 02:57:26;;;;;;;12.88;5.03;;;;;;;6.07;92.49;101650.66;3532371;40;20082;-50
2021/05/31 02:59:53;;;;;;;8.40;4.68;;;;;;;5.72;93.44;101657.78;3532121;40;20054;-53
2021/05/31 03:02:21;;;;;;;7.60;4.57;;;;;;;5.70;94.33;101654.28;3532065;40;20051;-53
2021/05/31 03:04:48;;;;;;;5.10;4.18;;;;;;;5.86;93.23;101660.34;3532599;40;20065;-53
2021/05/31 03:07:15;;;;;;;8.98;4.43;;;;;;;5.69;94.06;101668.66;3532245;40;20053;-51
2021/05/31 03:09:41;;;;;;;5.15;4.30;;;;;;;5.80;94.49;101660.00;3532259;40;20039;-55
2021/05/31 03:12:09;;;;;;;9.23;4.53;;;;;;;6.05;94.13;101669.13;3532059;40;20126;-52
2021/05/31 03:14:36;;;;;;;5.32;3.90;;;;;;;6.08;93.82;101666.78;3532079;40;20139;-54
2021/05/31 03:17:03;;;;;;;9.07;4.47;;;;;;;6.21;94.25;101669.25;3532488;40;20122;-51
2021/05/31 03:19:30;;;;;;;8.45;4.20;;;;;;;6.49;93.69;101666.66;3532211;40;20057;-50
2021/05/31 03:21:57;;;;;;;10.93;4.68;;;;;;;6.50;92.86;101658.22;3532161;40;20066;-53
2021/05/31 03:24:25;;;;;;;9.75;3.75;;;;;;;6.66;91.93;101660.00;3531950;40;20068;-49
2021/05/31 03:26:52;;;;;;;9.82;4.45;;;;;;;6.72;92.07;101662.00;3532235;40;20059;-56
2021/05/31 03:29:19;;;;;;;7.45;4.18;;;;;;;6.79;91.56;101662.41;3532004;40;20155;-55
2021/05/31 03:31:46;;;;;;;8.88;3.88;;;;;;;6.89;90.42;101654.53;3532300;40;20066;-55
2021/05/31 03:34:13;;;;;;;8.35;4.07;;;;;;;6.73;91.54;101661.22;3532428;40;20058;-50
2021/05/31 03:36:40;;;;;;;8.15;4.20;;;;;;;6.93;90.68;101655.56;3532099;40;20316;-55
2021/05/31 03:39:08;;;;;;;5.85;4.43;;;;;;;6.85;90.68;101657.69;3532007;40;20055;-53
2021/05/31 03:41:35;;;;;;;5.93;3.67;;;;;;;7.00;90.76;101656.78;3532094;40;20050;-53
2021/05/31 03:44:02;;;;;;;5.25;3.78;;;;;;;6.74;91.29;101661.28;3532449;40;20057;-53
2021/05/31 03:46:29;;;;;;;7.18;4.00;;;;;;;6.93;90.78;101657.22;3532033;40;20058;-53
2021/05/31 03:48:57;;;;;;;10.38;4.20;;;;;;;7.21;89.81;101659.63;3532065;40;20066;-55
2021/05/31 03:51:24;;;;;;;4.93;3.92;;;;;;;6.98;91.31;101658.34;3531822;40;20096;-55
2021/05/31 03:53:51;;;;;;;5.13;3.67;;;;;;;7.04;91.22;101656.19;3532075;40;20049;-56
2021/05/31 03:56:18;;;;;;;4.93;3.58;;;;;;;7.23;90.64;101656.38;3531868;40;20047;-54
2021/05/31 03:58:47;;;;;;;6.85;4.07;;;;;;;7.25;89.87;101657.34;3531968;40;20064;-54
2021/05/31 04:01:16;;;;;;;6.30;4.07;;;;;;;7.27;90.76;101660.84;3531541;40;20051;-56
2021/05/31 04:03:50;;;;;;;5.20;3.80;;;;;;;7.31;90.94;101660.22;3530238;40;20043;-54
2021/05/31 04:11:57;;;;;;;6.90;4.05;;;;;;;7.58;89.96;101655.75;3529934;40;20043;-55
2021/05/31 04:14:25;;;;;;;6.30;4.03;;;;;;;7.79;88.59;101657.66;3531684;40;20065;-57
2021/05/31 04:16:57;;;;;;;7.47;4.20;;;;;;;7.68;89.63;101659.66;3532034;40;20047;-55
2021/05/31 04:19:26;;;;;;;7.07;4.10;;;;;;;7.73;89.50;101660.78;3531870;40;20066;-53
2021/05/31 04:21:54;;;;;;;5.18;3.30;;;;;;;7.70;90.00;101668.25;3528503;40;20039;-55
2021/05/31 04:24:21;;;;;;;6.88;3.65;;;;;;;7.86;88.42;101659.75;3531809;40;20399;-50
2021/05/31 04:26:49;;;;;;;5.22;3.85;;;;;;;7.97;88.56;101660.28;3531402;40;20050;-54
2021/05/31 04:29:17;;;;;;;5.00;3.63;;;;;;;8.22;86.97;101658.19;3531629;40;20065;-53
2021/05/31 04:31:44;;;;;;;6.00;3.85;;;;;;;8.25;86.99;101662.59;3530902;40;20102;-54
2021/05/31 04:34:12;;;;;;;5.97;3.75;;;;;;;8.36;86.83;101656.34;3531617;40;20058;-51
2021/05/31 04:36:43;;;;;;;6.00;4.47;;;;;;;8.21;87.52;101664.09;3530876;40;20405;-58
2021/05/31 04:39:10;;;;;;;5.28;3.72;;;;;;;8.25;87.03;101671.09;3530587;40;20061;-54
2021/05/31 04:41:38;;;;;;;6.63;4.15;;;;;;;8.44;88.10;101664.41;3531444;40;20062;-50
2021/05/31 04:44:06;;;;;;;9.05;3.88;;;;;;;8.53;86.55;101664.88;3528833;40;20061;-54
2021/05/31 04:46:33;;;;;;;6.80;3.60;;;;;;;8.50;86.52;101662.16;3531476;40;20088;-53
2021/05/31 04:49:03;;;;;;;5.28;3.95;;;;;;;8.42;86.48;101661.78;3531820;40;20148;-59
2021/05/31 04:51:31;;;;;;;8.18;4.15;;;;;;;8.58;86.10;101671.06;3531551;40;20082;-55
2021/05/31 04:53:58;;;;;;;5.63;3.95;;;;;;;8.73;85.66;101679.47;3530544;40;20088;-53
2021/05/31 04:56:27;;;;;;;5.43;3.65;;;;;;;8.91;83.98;101666.72;3531306;40;20879;-54
2021/05/31 04:58:54;;;;;;;6.85;4.00;;;;;;;9.01;84.18;101680.81;3530167;40;20330;-52
2021/05/31 05:01:21;;;;;;;5.72;3.88;;;;;;;9.24;83.43;101693.00;3528634;40;20098;-57
2021/05/31 05:03:48;;;;;;;9.48;4.25;;;;;;;9.38;82.79;101681.78;3528284;40;20047;-56
2021/05/31 05:06:15;;;;;;;5.72;4.00;;;;;;;9.44;81.72;101681.16;3529442;40;20061;-57
2021/05/31 05:08:44;;;;;;;5.25;3.58;;;;;;;9.38;81.25;101684.31;3528623;40;20046;-55
2021/05/31 05:11:11;;;;;;;7.97;4.07;;;;;;;9.33;82.05;101677.22;3530774;40;20087;-58
2021/05/31 05:13:38;;;;;;;9.23;4.82;;;;;;;9.45;80.62;101682.91;3530567;40;20043;-54
2021/05/31 05:16:05;;;;;;;5.25;3.80;;;;;;;9.34;81.99;101679.88;3529006;40;20058;-56
2021/05/31 05:18:33;;;;;;;8.05;3.90;;;;;;;9.36;81.07;101680.81;3531304;40;20074;-56
2021/05/31 05:21:01;;;;;;;5.15;3.65;;;;;;;9.52;80.64;101677.28;3530377;40;20425;-55
2021/05/31 05:23:28;;;;;;;5.72;3.88;;;;;;;9.39;81.20;101675.84;3530166;40;20069;-55
2021/05/31 05:25:58;;;;;;;8.15;4.10;;;;;;;9.36;82.32;101683.38;3531045;40;20054;-53
2021/05/31 05:28:25;;;;;;;5.20;3.80;;;;;;;9.55;80.59;101685.09;3530971;40;20054;-52
2021/05/31 05:30:52;;;;;;;7.90;3.75;;;;;;;9.68;80.27;101676.28;3530823;40;20433;-59
2021/05/31 05:33:20;;;;;;;8.60;4.03;;;;;;;9.66;80.14;101691.59;3530585;40;20147;-53
2021/05/31 05:35:56;;;;;;;5.53;3.90;;;;;;;9.69;80.59;101681.47;3531169;40;20063;-53
2021/05/31 05:43:28;;;;;;;5.93;3.75;;;;;;;10.56;77.49;101679.28;3531290;40;20057;-54
2021/05/31 05:48:28;;;;;;;6.63;4.07;;;;;;;11.13;75.51;101685.00;3536164;40;20073;-55
2021/05/31 05:51:07;;;;;;;6.65;4.05;;;;;;;11.42;74.28;101680.16;3529245;40;20049;-55
2021/05/31 05:53:37;;;;;;;4.88;3.35;;;;;;;11.53;74.03;101680.56;3528853;40;20094;-53
2021/05/31 05:56:06;;;;;;;4.90;3.65;;;;;;;11.27;74.54;101690.69;3531051;40;20090;-57
2021/05/31 05:58:36;;;;;;;6.55;4.32;;;;;;;11.67;73.33;101692.22;3530947;40;20051;-56
2021/05/31 06:01:08;;;;;;;5.00;3.70;;;;;;;11.62;71.05;101683.47;3530808;40;20440;-52
2021/05/31 06:03:39;;;;;;;6.07;3.45;;;;;;;11.46;72.19;101688.03;3531860;40;20053;-54
2021/05/31 06:06:07;;;;;;;4.88;4.13;;;;;;;11.59;73.07;101683.34;3530555;40;20235;-57
2021/05/31 06:08:36;;;;;;;5.13;3.90;;;;;;;12.15;71.49;101692.25;3530715;40;20333;-54
2021/05/31 06:11:04;;;;;;;7.20;3.97;;;;;;;12.39;69.72;101689.69;3529921;40;20400;-57
2021/05/31 06:13:32;;;;;;;7.03;4.80;;;;;;;12.23;71.97;101684.00;3521874;40;20355;-55
2021/05/31 06:16:01;;;;;;;5.47;3.88;;;;;;;11.88;70.45;101692.19;3530563;40;20067;-52
2021/05/31 06:18:29;;;;;;;9.15;3.75;;;;;;;12.39;70.36;101693.13;3528093;40;20421;-53
2021/05/31 06:20:57;;;;;;;8.00;4.40;;;;;;;12.65;66.49;101699.13;3528734;40;20111;-57
2021/05/31 06:23:27;;;;;;;4.25;3.85;;;;;;;12.67;67.95;101694.94;3528937;40;20826;-54
2021/05/31 06:25:55;;;;;;;5.13;4.05;;;;;;;13.02;67.53;101695.19;3527626;40;20057;-56
2021/05/31 06:28:22;;;;;;;7.82;3.47;;;;;;;13.28;67.32;101700.31;3528153;40;20058;-51
2021/05/31 06:30:50;;;;;;;7.30;4.07;;;;;;;13.33;66.34;101694.50;3528683;40;20072;-56
2021/05/31 06:33:18;;;;;;;7.72;4.18;;;;;;;13.12;65.26;101707.50;3528268;40;20051;-58
2021/05/31 06:35:49;;;;;;;7.07;4.05;;;;;;;13.42;64.83;101704.19;3527961;40;20067;-55
2021/05/31 06:38:16;;;;;;;5.90;3.70;;;;;;;13.52;65.85;101705.34;3528493;40;20051;-56
2021/05/31 06:40:46;;;;;;;7.10;4.00;;;;;;;13.86;64.71;101702.03;3527387;40;20051;-55
2021/05/31 06:43:13;;;;;;;8.15;4.43;;;;;;;13.56;63.26;101710.63;3526886;40;20059;-51
2021/05/31 06:45:40;;;;;;;7.55;3.80;;;;;;;14.08;62.09;101703.50;3526675;40;20561;-55
2021/05/31 06:48:10;;;;;;;6.57;3.92;;;;;;;14.11;61.71;101701.03;3526513;40;20055;-56
2021/05/31 06:50:38;;;;;;;5.15;3.90;;;;;;;14.21;61.75;101693.59;3529555;40;20521;-56
2021/05/31 06:53:06;;;;;;;5.00;4.25;;;;;;;14.45;63.36;101695.06;3530753;40;20070;-58
2021/05/31 06:55:35;;;;;;;4.97;3.78;;;;;;;14.52;62.01;101700.47;3526283;40;20124;-56
2021/05/31 06:58:03;;;;;;;7.47;3.92;;;;;;;14.74;59.67;101691.56;3528685;40;20112;-54
2021/05/31 07:00:35;;;;;;;6.65;3.78;;;;;;;14.78;59.32;101692.50;3529898;40;20051;-59
2021/05/31 07:03:03;;;;;;;6.60;4.30;;;;;;;14.85;58.74;101689.25;3528598;40;20061;-57
2021/05/31 07:05:30;;;;;;;5.63;4.05;;;;;;;15.17;59.63;101700.31;3528041;40;20083;-51
2021/05/31 07:07:59;;;;;;;5.72;4.45;;;;;;;15.55;57.45;101695.13;3529589;40;20054;-54
2021/05/31 07:10:28;;;;;;;4.72;4.10;;;;;;;15.86;57.95;101696.69;3529140;40;20054;-52
2021/05/31 07:12:56;;;;;;;7.40;4.50;;;;;;;15.91;56.23;101687.31;3526843;40;20065;-57
2021/05/31 07:15:24;;;;;;;8.15;4.40;;;;;;;15.72;56.32;101692.94;3530297;40;20286;-55
2021/05/31 07:17:53;;;;;;;6.38;4.25;;;;;;;16.22;56.05;101688.78;3531586;40;20072;-57
2021/05/31 07:20:21;;;;;;;7.32;4.57;;;;;;;16.11;54.18;101682.50;3533563;40;20121;-53
2021/05/31 07:22:49;;;;;;;6.05;4.40;;;;;;;16.28;54.83;101691.47;3536013;40;20055;-52
2021/05/31 07:25:19;;;;;;;6.25;4.32;;;;;;;16.66;53.70;101687.81;3531155;40;20058;-54
2021/05/31 07:27:47;;;;;;;7.10;4.38;;;;;;;17.12;52.53;101692.00;3526994;40;20063;-53
2021/05/31 07:30:25;;;;;;;5.55;4.00;;;;;;;17.18;52.89;101692.09;3529959;40;20311;-58
2021/05/31 07:32:53;;;;;;;8.65;4.47;;;;;;;17.20;51.14;101690.41;3529663;40;20055;-54
2021/05/31 07:35:20;;;;;;;9.57;4.50;;;;;;;17.81;49.40;101680.88;3530066;40;20082;-54
2021/05/31 07:37:47;;;;;;;8.23;5.22;;;;;;;17.50;51.63;101683.91;3530898;40;20051;-52
2021/05/31 07:40:16;;;;;;;5.82;4.30;;;;;;;17.47;50.17;101678.69;3531377;40;20066;-55
2021/05/31 07:42:44;;;;;;;8.13;4.38;;;;;;;17.55;50.20;101675.34;3531304;40;20371;-56
2021/05/31 07:45:13;;;;;;;4.40;3.97;;;;;;;17.46;51.90;101685.56;3531238;40;20091;-50
2021/05/31 07:47:40;;;;;;;4.75;4.22;;;;;;;17.24;52.75;101691.31;3528857;40;20055;-55
2021/05/31 07:50:08;;;;;;;5.57;3.67;;;;;;;17.44;51.67;101682.13;3530852;40;20131;-58
2021/05/31 07:52:36;;;;;;;9.23;4.00;;;;;;;17.09;51.04;101684.19;3531206;40;20450;-51
2021/05/31 07:55:07;;;;;;;6.05;4.15;;;;;;;16.94;53.21;101678.78;3530619;40;20074;-54
2021/05/31 07:57:35;;;;;;;6.07;4.00;;;;;;;17.40;50.91;101679.47;3529812;40;20090;-55
2021/05/31 08:00:05;;;;;;;9.38;4.00;;;;;;;16.99;53.05;101680.59;3531374;40;20417;-53
2021/05/31 08:02:32;;;;;;;7.07;4.15;;;;;;;17.50;52.09;101679.59;3528826;40;20055;-52
2021/05/31 08:04:59;;;;;;;6.78;4.18;;;;;;;17.28;51.12;101681.00;3530697;40;20460;-59
2021/05/31 08:07:26;;;;;;;7.97;4.10;;;;;;;16.74;52.60;101676.78;3529548;40;20066;-51
2021/05/31 08:09:53;;;;;;;6.78;4.07;;;;;;;17.38;52.42;101674.28;3530264;40;20056;-57
2021/05/31 08:12:20;;;;;;;6.95;4.13;;;;;;;18.09;48.65;101678.59;3529861;40;20083;-54
2021/05/31 08:14:47;;;;;;;6.45;4.38;;;;;;;18.17;48.44;101676.97;3530418;40;20503;-51
2021/05/31 08:17:14;;;;;;;10.48;3.97;;;;;;;18.15;49.97;101667.41;3531156;40;20051;-53
2021/05/31 08:19:41;;;;;;;5.10;3.80;;;;;;;19.41;46.64;101670.13;3529939;40;20055;-56
2021/05/31 08:22:09;;;;;;;6.50;4.20;;;;;;;18.58;46.66;101668.72;3529748;40;20050;-51
2021/05/31 08:24:36;;;;;;;7.30;3.67;;;;;;;19.33;45.82;101664.91;3530376;40;20098;-56
2021/05/31 08:27:04;;;;;;;16.55;6.10;;;;;;;19.25;46.35;101666.59;3520497;40;20098;-55
2021/05/31 08:29:31;;;;;;;4.13;3.78;;;;;;;18.49;46.64;101663.44;3531518;40;20057;-51
2021/05/31 08:31:58;;;;;;;12.80;4.70;;;;;;;19.03;46.31;101667.31;3531745;40;20079;-56
2021/05/31 08:34:27;;;;;;;11.93;5.63;;;;;;;18.76;49.28;101661.06;3530459;40;20687;-53
2021/05/31 08:36:54;;;;;;;5.18;4.18;;;;;;;18.50;48.46;101655.66;3530864;40;20055;-56
2021/05/31 08:39:21;;;;;;;6.97;3.70;;;;;;;18.70;47.72;101658.44;3531204;40;20066;-51
2021/05/31 08:41:51;;;;;;;9.23;4.30;;;;;;;18.71;47.84;101651.53;3529957;40;20382;-55
2021/05/31 08:44:18;;;;;;;14.02;4.72;;;;;;;18.81;47.65;101654.22;3529541;40;20353;-51
2021/05/31 08:46:45;;;;;;;7.53;3.72;;;;;;;18.93;46.07;101649.97;3531175;40;20050;-55
2021/05/31 08:49:23;;;;;;;6.18;3.80;;;;;;;18.71;44.95;101652.38;3527653;40;20078;-56
2021/05/31 08:51:50;;;;;;;6.63;3.03;;;;;;;18.72;45.88;101648.97;3530713;40;20055;-57
2021/05/31 08:54:17;;;;;;;5.20;3.17;;;;;;;19.01;44.52;101654.34;3536037;40;20054;-59
2021/05/31 08:56:45;;;;;;;3.67;2.90;;;;;;;18.55;45.04;101648.78;3536306;40;20055;-58
2021/05/31 08:59:15;;;;;;;8.35;3.58;;;;;;;18.64;45.16;101653.19;3531151;40;20054;-57
2021/05/31 09:01:59;;;;;;;7.25;3.42;;;;;;;17.88;45.25;101647.25;3530873;40;20047;-61
2021/05/31 09:04:48;;;;;;;5.68;3.47;;;;;;;18.38;46.48;101642.56;3529322;40;20066;-58
2021/05/31 09:07:15;;;;;;;5.43;2.95;;;;;;;18.56;43.50;101647.06;3529189;40;20102;-55
2021/05/31 09:09:44;;;;;;;5.95;3.22;;;;;;;19.00;42.78;101647.44;3531217;40;20059;-54
2021/05/31 09:12:12;;;;;;;3.42;3.05;;;;;;;18.99;44.44;101648.25;3530373;40;20136;-60
2021/05/31 09:14:42;;;;;;;4.45;2.63;;;;;;;18.58;42.03;101641.03;3530754;40;20055;-54
2021/05/31 09:17:09;;;;;;;3.15;2.47;;;;;;;19.08;41.86;101640.53;3529677;40;20051;-57
2021/05/31 09:19:47;;;;;;;7.15;2.88;;;;;;;19.14;41.46;101644.91;3530095;40;20066;-58
2021/05/31 09:22:14;;;;;;;6.38;2.70;;;;;;;20.13;41.49;101640.97;3529465;40;20065;-58
2021/05/31 09:24:58;;;;;;;3.65;2.28;;;;;;;20.07;38.85;101647.88;3527694;40;20047;-53
2021/05/31 09:27:27;;;;;;;4.60;2.75;;;;;;;20.34;40.77;101644.47;3527916;40;20070;-55
2021/05/31 09:30:02;;;;;;;5.18;2.72;;;;;;;20.91;36.98;101649.66;3529057;40;20066;-53
2021/05/31 09:32:29;;;;;;;3.78;2.33;;;;;;;20.78;37.35;101641.00;3528161;40;20051;-55
2021/05/31 09:35:05;;;;;;;3.28;2.72;;;;;;;19.80;37.97;101632.22;3523656;40;20042;-59
2021/05/31 09:37:33;;;;;;;3.55;2.53;;;;;;;20.72;38.96;101635.81;3527988;40;20066;-57
2021/05/31 09:40:08;;;;;;;8.50;2.50;;;;;;;21.20;37.23;101644.38;3521030;40;20406;-59
2021/05/31 09:42:35;;;;;;;3.60;2.13;;;;;;;21.97;35.69;101633.63;3527598;40;20396;-52
2021/05/31 09:45:08;;;;;;;4.00;2.40;;;;;;;21.13;36.33;101642.69;3528404;40;20070;-54
2021/05/31 09:47:37;;;;;;;4.38;2.35;;;;;;;22.29;35.08;101626.47;3527733;40;20086;-52
2021/05/31 09:50:06;;;;;;;4.03;2.40;;;;;;;20.70;34.84;101629.72;3527335;40;20055;-58
2021/05/31 09:52:44;;;;;;;2.78;2.08;;;;;;;21.54;35.59;101628.66;3530016;40;20515;-54
2021/05/31 09:55:12;;;;;;;4.20;2.08;;;;;;;23.24;33.79;101628.19;3528550;40;20312;-54
2021/05/31 09:57:39;;;;;;;6.88;2.47;;;;;;;24.31;28.73;101634.59;3530076;40;20129;-55
2021/05/31 10:00:16;;;;;;;3.40;2.20;;;;;;;24.30;28.85;101631.97;3529425;40;20104;-59
2021/05/31 10:08:15;;;;;;;2.70;2.40;;;;;;;23.48;29.60;101629.66;3528314;40;20077;-59
2021/05/31 10:10:44;;;;;;;3.03;2.42;;;;;;;25.94;24.80;101623.59;3528460;40;20139;-54
2021/05/31 10:13:11;;;;;;;2.50;2.30;;;;;;;26.78;25.34;101632.88;3530501;40;20440;-57
2021/05/31 10:15:41;;;;;;;4.90;2.00;;;;;;;28.09;24.17;101622.06;3530074;40;20059;-54
2021/05/31 10:18:13;;;;;;;3.40;2.00;;;;;;;31.15;19.68;101631.38;3530452;40;20055;-55
2021/05/31 10:20:42;;;;;;;3.83;2.00;;;;;;;28.00;22.19;101619.72;3530009;40;20496;-55
2021/05/31 10:23:11;;;;;;;3.15;2.00;;;;;;;25.75;23.33;101612.63;3522460;40;20050;-54
2021/05/31 10:25:43;;;;;;;3.17;2.17;;;;;;;28.75;20.75;101615.47;3530687;40;20462;-64
2021/05/31 10:28:24;;;;;;;2.75;2.13;;;;;;;31.19;19.46;101622.38;3536567;40;20355;-58
2021/05/31 10:31:17;;;;;;;4.95;1.55;;;;;;;30.05;19.30;101622.88;3531710;40;20058;-56
2021/05/31 10:33:55;;;;;;;3.58;1.75;;;;;;;30.51;19.50;101611.28;3527407;40;20047;-55
2021/05/31 10:36:23;;;;;;;4.00;1.70;;;;;;;31.31;20.08;101613.91;3528700;40;20351;-57
2021/05/31 10:38:51;;;;;;;2.20;1.80;;;;;;;32.16;17.46;101616.84;3527705;40;20377;-54
2021/05/31 10:41:23;;;;;;;4.97;1.77;;;;;;;31.53;18.56;101612.91;3529989;40;20496;-58
2021/05/31 10:43:56;;;;;;;4.93;2.38;;;;;;;32.74;17.65;101621.00;3526702;40;20377;-59
2021/05/31 10:46:34;;;;;;;3.08;1.80;;;;;;;33.98;17.14;101616.91;3529253;40;20038;-58
2021/05/31 10:49:04;;;;;;;4.80;1.80;;;;;;;33.75;16.74;101623.50;3529400;40;20051;-59
2021/05/31 10:51:38;;;;;;;3.58;1.70;;;;;;;31.76;17.84;101612.66;3529846;40;20122;-56
2021/05/31 10:54:18;;;;;;;3.90;1.90;;;;;;;35.68;15.18;101617.09;3528703;40;20087;-57
2021/05/31 10:56:47;;;;;;;2.97;1.58;;;;;;;34.89;16.23;101609.66;3528434;40;20137;-54
2021/05/31 10:59:19;;;;;;;5.70;1.98;;;;;;;32.65;16.78;101598.47;3529547;40;20164;-55
2021/05/31 11:01:47;;;;;;;2.03;1.83;;;;;;;35.14;16.28;101604.56;3529497;40;20062;-55
2021/05/31 11:04:23;;;;;;;4.70;1.77;;;;;;;32.02;17.04;101587.53;3529029;40;20141;-52
2021/05/31 11:06:55;;;;;;;1.60;1.50;;;;;;;32.89;16.63;101584.84;3527690;40;20055;-56
2021/05/31 11:09:32;;;;;;;4.28;1.70;;;;;;;35.21;14.71;101592.56;3527892;40;20098;-57
2021/05/31 11:12:08;;;;;;;2.08;1.88;;;;;;;35.67;15.20;101586.09;3528072;40;20058;-58
2021/05/31 11:14:38;;;;;;;2.53;1.95;;;;;;;33.93;16.85;101579.06;3529741;40;20042;-52
2021/05/31 11:17:15;;;;;;;2.30;2.10;;;;;;;35.84;14.83;101595.63;3529512;40;20442;-53
2021/05/31 11:19:51;;;;;;;2.33;1.88;;;;;;;31.07;17.34;101573.53;3526514;40;20055;-50
2021/05/31 11:22:27;;;;;;;2.53;2.10;;;;;;;31.26;17.66;101577.97;3525853;40;20501;-53
2021/05/31 11:25:05;;;;;;;5.60;1.88;;;;;;;35.80;15.98;101596.78;3529914;40;20090;-57
2021/05/31 11:27:38;;;;;;;2.47;1.80;;;;;;;32.22;16.08;101585.66;3530036;40;20142;-56
2021/05/31 11:30:11;;;;;;;2.70;2.00;;;;;;;33.59;15.75;101582.78;3529908;40;20415;-56
2021/05/31 11:32:38;;;;;;;2.22;1.45;;;;;;;34.55;16.18;101585.13;3530177;40;20053;-57
2021/05/31 11:35:09;;;;;;;1.92;1.70;;;;;;;37.86;12.99;101598.31;3530141;40;20061;-58
2021/05/31 11:37:40;;;;;;;1.88;1.60;;;;;;;36.41;13.20;101584.66;3520776;40;20046;-55
2021/05/31 11:40:23;;;;;;;3.90;1.77;;;;;;;38.17;11.17;101580.75;3528800;40;20054;-57
2021/05/31 11:42:52;;;;;;;2.10;1.80;;;;;;;35.07;14.88;101571.28;3529894;40;20509;-56
2021/05/31 11:45:21;;;;;;;2.67;1.58;;;;;;;33.62;13.94;101564.88;3530113;40;20309;-54
2021/05/31 11:48:00;;;;;;;2.17;1.50;;;;;;;33.83;14.71;101564.56;3518744;40;20063;-57
2021/05/31 11:50:31;;;;;;;4.55;1.67;;;;;;;35.25;14.60;101569.25;3527544;40;20050;-56
2021/05/31 11:52:59;;;;;;;2.40;1.67;;;;;;;34.89;14.25;101567.94;3527640;40;20058;-58
2021/05/31 11:55:28;;;;;;;3.63;1.65;;;;;;;37.23;12.72;101575.31;3524993;40;20047;-59
2021/05/31 11:57:55;;;;;;;3.50;2.08;;;;;;;35.54;14.58;101569.19;3530289;40;20049;-59
2021/05/31 12:00:29;;;;;;;3.95;1.70;;;;;;;34.09;14.86;101558.63;3535405;40;20058;-57